createdAt,value
2022-12-25T00:02:07.719Z,24.30
2022-12-25T00:04:36.468Z,23.65
2022-12-25T00:07:09.493Z,19.30
2022-12-25T00:09:38.239Z,17.98
2022-12-25T00:12:07.453Z,17.85
2022-12-25T00:14:36.139Z,14.45
2022-12-25T00:17:07.905Z,22.85
2022-12-25T00:19:36.670Z,19.08
2022-12-25T00:22:06.723Z,28.30
2022-12-25T00:24:35.382Z,26.25
2022-12-25T00:27:04.176Z,25.43
2022-12-25T00:29:35.694Z,29.33
2022-12-25T00:32:04.705Z,24.70
2022-12-25T00:34:35.354Z,24.30
2022-12-25T00:37:06.812Z,29.15
2022-12-25T00:39:38.548Z,24.90
2022-12-25T00:42:24.097Z,25.52
2022-12-25T00:44:53.101Z,17.58
2022-12-25T00:47:21.939Z,29.45
2022-12-25T00:49:52.238Z,20.35
2022-12-25T00:52:22.352Z,19.98
2022-12-25T00:54:52.863Z,18.20
2022-12-25T00:57:21.654Z,21.88
2022-12-25T00:59:52.887Z,19.88
2022-12-25T01:02:24.746Z,21.35
2022-12-25T01:04:58.085Z,22.05
2022-12-25T01:07:28.715Z,23.27
2022-12-25T01:10:14.902Z,22.58
2022-12-25T01:12:44.798Z,19.02
2022-12-25T01:17:45.993Z,18.13
2022-12-25T01:20:16.380Z,19.48
2022-12-25T01:22:47.223Z,18.38
2022-12-25T01:25:16.212Z,17.33
2022-12-25T01:27:44.908Z,23.67
2022-12-25T01:30:16.171Z,19.83
2022-12-25T01:32:45.088Z,17.77
2022-12-25T01:35:13.754Z,20.65
2022-12-25T01:37:42.518Z,19.98
2022-12-25T01:40:15.638Z,20.02
2022-12-25T01:42:44.552Z,20.08
2022-12-25T01:45:39.608Z,22.43
2022-12-25T01:48:13.324Z,17.02
2022-12-25T01:50:46.910Z,23.10
2022-12-25T01:53:15.993Z,18.80
2022-12-25T01:55:50.219Z,25.77
2022-12-25T01:58:19.520Z,16.33
2022-12-25T02:00:53.461Z,21.60
2022-12-25T02:03:24.021Z,22.05
2022-12-25T02:05:53.322Z,16.75
2022-12-25T02:08:23.506Z,23.45
2022-12-25T02:10:57.489Z,20.88
2022-12-25T02:13:29.495Z,18.85
2022-12-25T02:16:07.244Z,19.33
2022-12-25T02:18:50.543Z,18.33
2022-12-25T02:21:41.387Z,22.27
2022-12-25T02:24:53.137Z,17.38
2022-12-25T02:27:56.657Z,20.33
2022-12-25T02:30:25.464Z,20.73
2022-12-25T02:33:23.130Z,20.80
2022-12-25T02:35:53.798Z,20.98
2022-12-25T02:38:27.254Z,16.67
2022-12-25T02:41:02.356Z,20.73
2022-12-25T02:43:58.393Z,22.95
2022-12-25T02:46:46.275Z,16.77
2022-12-25T02:49:36.496Z,18.20
2022-12-25T02:52:28.175Z,16.98
2022-12-25T02:55:19.357Z,22.45
2022-12-25T02:58:09.481Z,17.95
2022-12-25T03:01:01.507Z,22.73
2022-12-25T03:03:51.048Z,14.88
2022-12-25T03:06:47.174Z,16.52
2022-12-25T03:09:43.541Z,16.00
2022-12-25T03:12:21.872Z,17.02
2022-12-25T03:15:08.134Z,17.20
2022-12-25T03:17:38.544Z,14.93
2022-12-25T03:20:34.100Z,18.10
2022-12-25T03:23:37.534Z,16.33
2022-12-25T03:26:23.937Z,18.38
2022-12-25T03:29:06.544Z,18.23
2022-12-25T03:31:44.675Z,21.15
2022-12-25T03:34:49.660Z,15.07
2022-12-25T03:37:47.553Z,16.83
2022-12-25T03:40:41.617Z,18.13
2022-12-25T03:43:44.811Z,18.65
2022-12-25T03:46:36.051Z,21.05
2022-12-25T03:49:29.991Z,17.20
2022-12-25T03:52:31.186Z,16.70
2022-12-25T03:55:20.694Z,17.20
2022-12-25T03:58:09.148Z,19.80
2022-12-25T04:00:55.279Z,23.27
2022-12-25T04:03:41.898Z,19.15
2022-12-25T04:06:28.228Z,23.13
2022-12-25T04:09:15.794Z,21.60
2022-12-25T04:12:05.057Z,22.92
2022-12-25T04:14:51.523Z,24.88
2022-12-25T04:17:37.536Z,33.47
2022-12-25T04:20:24.968Z,30.80
2022-12-25T04:23:11.107Z,30.02
2022-12-25T04:26:01.796Z,28.23
2022-12-25T04:28:47.734Z,27.77
2022-12-25T04:31:34.063Z,24.27
2022-12-25T04:34:25.202Z,23.17
2022-12-25T04:36:55.965Z,26.08
2022-12-25T04:39:27.870Z,22.00
2022-12-25T04:42:00.525Z,25.70
2022-12-25T04:44:29.484Z,26.60
2022-12-25T04:46:58.182Z,29.63
2022-12-25T04:49:26.893Z,29.13
2022-12-25T04:51:55.580Z,42.05
2022-12-25T04:54:25.663Z,27.97
2022-12-25T04:56:54.405Z,23.60
2022-12-25T04:59:24.765Z,19.58
2022-12-25T05:01:53.683Z,22.13
2022-12-25T05:04:22.630Z,20.17
2022-12-25T05:07:00.114Z,24.20
2022-12-25T05:09:41.904Z,21.95
2022-12-25T05:12:11.296Z,27.40
2022-12-25T05:14:46.067Z,25.05
2022-12-25T05:17:17.865Z,28.08
2022-12-25T05:19:46.662Z,25.23
2022-12-25T05:22:15.302Z,26.70
2022-12-25T05:24:43.963Z,33.80
2022-12-25T05:27:12.626Z,28.13
2022-12-25T05:29:41.219Z,25.58
2022-12-25T05:32:12.567Z,22.02
2022-12-25T05:34:41.511Z,21.67
2022-12-25T05:37:10.088Z,20.40
2022-12-25T05:39:41.750Z,20.90
2022-12-25T05:42:13.589Z,19.40
2022-12-25T05:44:44.506Z,22.02
2022-12-25T05:47:14.842Z,25.48
2022-12-25T05:49:44.445Z,23.40
2022-12-25T05:52:15.951Z,27.42
2022-12-25T05:54:49.484Z,22.25
2022-12-25T05:57:20.766Z,26.05
2022-12-25T05:59:49.567Z,23.55
2022-12-25T06:02:19.795Z,28.13
2022-12-25T06:04:51.745Z,24.92
2022-12-25T06:07:27.296Z,24.95
2022-12-25T06:09:57.116Z,29.85
2022-12-25T06:12:25.980Z,28.88
2022-12-25T06:14:54.881Z,28.77
2022-12-25T06:17:28.669Z,23.90
2022-12-25T06:20:01.749Z,26.45
2022-12-25T06:22:31.034Z,27.73
2022-12-25T06:25:00.191Z,22.38
2022-12-25T06:27:29.776Z,21.88
2022-12-25T06:30:01.707Z,23.42
2022-12-25T06:32:32.085Z,24.23
2022-12-25T06:35:00.754Z,22.10
2022-12-25T06:37:29.485Z,22.95
2022-12-25T06:39:58.175Z,19.73
2022-12-25T06:42:27.596Z,22.77
2022-12-25T06:45:01.169Z,22.85
2022-12-25T06:47:31.261Z,26.60
2022-12-25T06:50:02.321Z,20.40
2022-12-25T06:52:35.561Z,21.20
2022-12-25T06:55:08.163Z,26.15
2022-12-25T06:57:37.168Z,20.42
2022-12-25T07:00:10.865Z,21.27
2022-12-25T07:02:47.775Z,19.55
2022-12-25T07:05:19.703Z,19.20
2022-12-25T07:07:51.560Z,23.17
2022-12-25T07:10:22.790Z,19.50
2022-12-25T07:12:51.526Z,19.52
2022-12-25T07:15:20.239Z,22.70
2022-12-25T07:17:50.316Z,19.90
2022-12-25T07:20:19.157Z,22.23
2022-12-25T07:22:50.471Z,19.55
2022-12-25T07:25:19.140Z,21.77
2022-12-25T07:27:50.191Z,24.38
2022-12-25T07:30:19.155Z,21.75
2022-12-25T07:32:50.218Z,19.10
2022-12-25T07:35:20.660Z,21.65
2022-12-25T07:37:49.365Z,21.25
2022-12-25T07:40:20.190Z,21.73
2022-12-25T07:42:49.210Z,19.42
2022-12-25T07:45:22.772Z,21.20
2022-12-25T07:47:55.212Z,19.83
2022-12-25T07:50:30.383Z,21.10
2022-12-25T07:52:59.200Z,20.38
2022-12-25T07:55:30.236Z,19.57
2022-12-25T07:58:01.208Z,24.77
2022-12-25T08:00:32.964Z,22.23
2022-12-25T08:03:04.969Z,22.05
2022-12-25T08:05:35.888Z,17.77
2022-12-25T08:08:07.814Z,21.75
2022-12-25T08:10:40.739Z,23.90
2022-12-25T08:13:14.459Z,20.30
2022-12-25T08:15:45.730Z,20.40
2022-12-25T08:18:19.828Z,20.63
2022-12-25T08:20:54.595Z,18.50
2022-12-25T08:23:24.292Z,19.45
2022-12-25T08:25:53.036Z,23.70
2022-12-25T08:28:21.900Z,23.47
2022-12-25T08:30:52.474Z,23.35
2022-12-25T08:33:22.282Z,22.08
2022-12-25T08:40:51.270Z,23.10
2022-12-25T08:43:20.026Z,23.50
2022-12-25T08:45:50.338Z,27.38
2022-12-25T08:48:19.078Z,20.73
2022-12-25T08:50:50.867Z,21.42
2022-12-25T08:53:21.926Z,26.17
2022-12-25T08:55:50.637Z,25.10
2022-12-25T08:58:21.572Z,24.73
2022-12-25T09:00:52.928Z,22.38
2022-12-25T09:03:21.674Z,24.65
2022-12-25T09:05:51.988Z,31.13
2022-12-25T09:08:28.887Z,31.88
2022-12-25T09:11:04.662Z,26.05
2022-12-25T09:13:47.258Z,25.60
2022-12-25T09:16:19.004Z,27.70
2022-12-25T09:18:50.148Z,25.85
2022-12-25T09:21:20.179Z,27.45
2022-12-25T09:23:53.584Z,24.02
2022-12-25T09:26:29.479Z,27.98
2022-12-25T09:29:01.190Z,28.88
2022-12-25T09:31:35.984Z,32.63
2022-12-25T09:34:04.736Z,32.47
2022-12-25T09:36:36.479Z,28.52
2022-12-25T09:39:07.064Z,28.63
2022-12-25T09:41:41.915Z,31.48
2022-12-25T09:44:14.848Z,28.05
2022-12-25T09:46:49.406Z,26.08
2022-12-25T09:49:24.490Z,26.27
2022-12-25T09:51:58.387Z,27.85
2022-12-25T09:54:43.201Z,29.58
2022-12-25T09:57:17.121Z,29.15
2022-12-25T09:59:51.283Z,30.05
2022-12-25T10:02:39.075Z,28.38
2022-12-25T10:05:40.924Z,29.73
2022-12-25T10:08:16.286Z,29.20
2022-12-25T10:10:53.151Z,29.65
2022-12-25T10:13:55.333Z,28.77
2022-12-25T10:16:35.581Z,32.10
2022-12-25T10:19:19.011Z,32.28
2022-12-25T10:21:55.990Z,30.48
2022-12-25T10:24:34.194Z,29.58
2022-12-25T10:27:17.262Z,29.33
2022-12-25T10:29:49.430Z,29.13
2022-12-25T10:32:18.273Z,30.35
2022-12-25T10:34:47.157Z,27.67
2022-12-25T10:37:16.021Z,29.50
2022-12-25T10:39:47.309Z,28.55
2022-12-25T10:42:32.499Z,29.83
2022-12-25T10:45:02.602Z,29.98
2022-12-25T10:47:34.280Z,27.92
2022-12-25T10:50:09.140Z,30.23
2022-12-25T10:52:57.035Z,29.45
2022-12-25T10:55:29.249Z,30.00
2022-12-25T10:58:02.110Z,34.25
2022-12-25T11:00:38.790Z,30.77
2022-12-25T11:03:23.784Z,33.33
2022-12-25T11:05:57.385Z,34.80
2022-12-25T11:08:29.933Z,39.53
2022-12-25T11:11:08.298Z,37.30
2022-12-25T11:13:48.935Z,30.13
2022-12-25T11:16:30.620Z,34.85
2022-12-25T11:19:22.911Z,30.17
2022-12-25T11:21:54.779Z,33.55
2022-12-25T11:24:27.321Z,34.30
2022-12-25T11:26:58.639Z,29.88
2022-12-25T11:29:40.380Z,33.45
2022-12-25T11:32:18.249Z,32.97
2022-12-25T11:34:49.774Z,28.00
2022-12-25T11:37:25.741Z,31.58
2022-12-25T11:39:54.736Z,34.15
2022-12-25T11:42:26.554Z,31.70
2022-12-25T11:45:00.370Z,30.10
2022-12-25T11:47:36.561Z,30.83
2022-12-25T11:50:26.453Z,31.08
2022-12-25T11:52:58.782Z,26.17
2022-12-25T11:55:54.508Z,32.88
2022-12-25T11:58:33.593Z,31.90
2022-12-25T12:01:10.706Z,30.55
2022-12-25T12:03:42.734Z,23.30
2022-12-25T12:06:19.026Z,24.73
2022-12-25T12:08:49.986Z,28.70
2022-12-25T12:11:27.037Z,24.13
2022-12-25T12:14:06.943Z,25.33
2022-12-25T12:16:40.047Z,26.00
2022-12-25T12:19:30.987Z,26.65
2022-12-25T12:22:04.804Z,23.80
2022-12-25T12:24:38.734Z,31.23
2022-12-25T12:27:26.214Z,31.77
2022-12-25T12:29:59.711Z,32.22
2022-12-25T12:32:52.649Z,32.03
2022-12-25T12:35:29.893Z,27.27
2022-12-25T12:38:07.740Z,26.48
2022-12-25T12:40:40.999Z,26.35
2022-12-25T12:43:33.135Z,26.65
2022-12-25T12:46:06.841Z,25.73
2022-12-25T12:48:45.223Z,31.65
2022-12-25T12:51:27.611Z,25.63
2022-12-25T12:54:20.544Z,27.83
2022-12-25T12:57:02.427Z,28.17
2022-12-25T12:59:41.239Z,28.50
2022-12-25T13:02:39.456Z,22.58
2022-12-25T13:05:21.597Z,26.30
2022-12-25T13:08:01.281Z,26.00
2022-12-25T13:10:35.589Z,27.13
2022-12-25T13:13:11.553Z,27.50
2022-12-25T13:15:40.450Z,28.13
2022-12-25T13:18:15.957Z,23.83
2022-12-25T13:20:55.166Z,23.52
2022-12-25T13:23:29.198Z,24.30
2022-12-25T13:25:59.533Z,26.25
2022-12-25T13:28:35.066Z,24.63
2022-12-25T13:31:06.959Z,26.92
2022-12-25T13:33:41.298Z,28.92
2022-12-25T13:36:15.174Z,26.65
2022-12-25T13:38:48.457Z,26.67
2022-12-25T13:41:38.111Z,26.55
2022-12-25T13:44:20.020Z,24.17
2022-12-25T13:46:51.861Z,23.70
2022-12-25T13:49:22.620Z,24.50
2022-12-25T13:51:53.347Z,23.33
2022-12-25T13:54:24.391Z,27.40
2022-12-25T13:56:56.179Z,27.80
2022-12-25T13:59:27.028Z,31.17
2022-12-25T14:02:03.327Z,26.17
2022-12-25T14:04:46.133Z,31.38
2022-12-25T14:07:24.869Z,28.27
2022-12-25T14:10:01.253Z,24.45
2022-12-25T14:12:32.931Z,28.42
2022-12-25T14:15:05.980Z,22.35
2022-12-25T14:17:37.366Z,24.92
2022-12-25T14:20:09.059Z,25.38
2022-12-25T14:22:41.508Z,29.67
2022-12-25T14:25:19.706Z,29.40
2022-12-25T14:27:51.390Z,32.38
2022-12-25T14:30:23.023Z,29.50
2022-12-25T14:32:59.017Z,32.55
2022-12-25T14:35:29.794Z,31.73
2022-12-25T14:38:01.480Z,37.30
2022-12-25T14:40:32.310Z,31.60
2022-12-25T14:43:04.822Z,28.88
2022-12-25T14:45:40.947Z,30.25
2022-12-25T14:48:24.602Z,28.10
2022-12-25T14:51:02.162Z,27.98
2022-12-25T14:53:38.784Z,26.75
2022-12-25T14:56:09.760Z,26.67
2022-12-25T14:58:48.138Z,27.27
2022-12-25T15:01:25.551Z,30.25
2022-12-25T15:04:06.027Z,27.42
2022-12-25T15:06:37.424Z,26.30
2022-12-25T15:09:19.264Z,23.45
2022-12-25T15:11:50.230Z,24.92
2022-12-25T15:14:19.235Z,26.48
2022-12-25T15:16:49.943Z,40.35
2022-12-25T15:19:26.551Z,32.95
2022-12-25T15:21:57.517Z,26.27
2022-12-25T15:24:31.918Z,23.52
2022-12-25T15:27:01.753Z,20.65
2022-12-25T15:32:21.456Z,16.08
2022-12-25T15:34:53.992Z,13.10
2022-12-25T15:37:22.825Z,16.25
2022-12-25T15:39:55.486Z,13.27
2022-12-25T15:42:31.367Z,17.77
2022-12-25T15:45:15.539Z,16.10
2022-12-25T15:47:44.278Z,16.85
2022-12-25T15:50:17.354Z,18.17
2022-12-25T15:52:47.490Z,19.48
2022-12-25T15:55:18.232Z,18.23
2022-12-25T15:57:51.971Z,17.48
2022-12-25T16:00:26.029Z,20.10
2022-12-25T16:02:55.299Z,14.60
2022-12-25T16:05:24.358Z,14.77
2022-12-25T16:07:53.203Z,15.23
2022-12-25T16:10:33.406Z,13.93
2022-12-25T16:13:05.457Z,15.82
2022-12-25T16:15:34.263Z,18.15
2022-12-25T16:18:08.678Z,15.10
2022-12-25T16:20:37.468Z,13.07
2022-12-25T16:23:06.120Z,15.20
2022-12-25T16:25:36.193Z,14.00
2022-12-25T16:28:11.478Z,16.38
2022-12-25T16:30:40.708Z,16.27
2022-12-25T16:33:10.743Z,18.10
2022-12-25T16:35:39.508Z,17.90
2022-12-25T16:38:11.952Z,13.55
2022-12-25T16:40:42.089Z,13.02
2022-12-25T16:43:11.135Z,13.82
2022-12-25T16:45:40.794Z,15.07
2022-12-25T16:48:09.611Z,17.13
2022-12-25T16:50:42.116Z,16.38
2022-12-25T16:53:14.836Z,18.35
2022-12-25T16:55:47.971Z,16.38
2022-12-25T16:58:16.817Z,21.38
2022-12-25T17:00:49.354Z,21.50
2022-12-25T17:03:18.583Z,21.83
2022-12-25T17:05:49.189Z,23.43
2022-12-25T17:08:17.908Z,17.40
2022-12-25T17:10:47.973Z,18.20
2022-12-25T17:13:18.462Z,21.50
2022-12-25T17:15:50.647Z,17.55
2022-12-25T17:18:23.447Z,13.32
2022-12-25T17:20:53.675Z,14.68
2022-12-25T17:23:22.644Z,14.57
2022-12-25T17:25:55.611Z,11.48
2022-12-25T17:28:24.390Z,14.18
2022-12-25T17:30:53.112Z,16.45
2022-12-25T17:33:25.134Z,13.77
2022-12-25T17:35:56.160Z,13.77
2022-12-25T17:38:30.724Z,13.38
2022-12-25T17:41:06.978Z,14.18
2022-12-25T17:43:37.379Z,11.43
2022-12-25T17:46:07.233Z,13.65
2022-12-25T17:48:36.651Z,14.23
2022-12-25T17:51:06.725Z,16.38
2022-12-25T17:53:36.605Z,16.33
2022-12-25T17:56:10.300Z,18.48
2022-12-25T17:58:44.301Z,17.15
2022-12-25T18:01:17.633Z,18.10
2022-12-25T18:03:47.539Z,14.60
2022-12-25T18:06:20.951Z,18.10
2022-12-25T18:08:50.544Z,15.70
2022-12-25T18:11:33.091Z,14.35
2022-12-25T18:14:04.569Z,13.88
2022-12-25T18:16:39.008Z,13.70
2022-12-25T18:19:08.335Z,14.20
2022-12-25T18:21:40.267Z,13.02
2022-12-25T18:24:12.254Z,21.30
2022-12-25T18:26:52.481Z,23.90
2022-12-25T18:29:23.970Z,19.52
2022-12-25T18:31:57.082Z,16.42
2022-12-25T18:34:25.901Z,14.02
2022-12-25T18:36:54.539Z,16.75
2022-12-25T18:39:23.149Z,15.07
2022-12-25T18:42:10.573Z,17.20
2022-12-25T18:44:39.326Z,14.18
2022-12-25T18:47:08.138Z,15.10
2022-12-25T18:49:42.041Z,13.50
2022-12-25T18:52:48.824Z,16.17
2022-12-25T18:55:00.498Z,21.40
2022-12-25T18:57:32.231Z,18.75
2022-12-25T19:00:01.051Z,20.75
2022-12-25T19:02:30.098Z,18.48
2022-12-25T19:04:58.923Z,16.92
2022-12-25T19:07:27.749Z,13.70
2022-12-25T19:09:57.690Z,16.05
2022-12-25T19:14:56.283Z,13.88
2022-12-25T19:17:31.372Z,14.07
2022-12-25T19:20:03.847Z,17.20
2022-12-25T19:22:32.668Z,15.65
2022-12-25T19:25:02.977Z,13.20
2022-12-25T19:27:34.693Z,16.65
2022-12-25T19:30:10.325Z,16.08
2022-12-25T19:32:39.558Z,13.48
2022-12-25T19:35:08.943Z,14.82
2022-12-25T19:37:37.639Z,15.30
2022-12-25T19:40:10.197Z,13.50
2022-12-25T19:42:41.030Z,14.15
2022-12-25T19:45:11.960Z,16.02
2022-12-25T19:47:47.868Z,12.73
2022-12-25T19:50:19.363Z,14.65
2022-12-25T19:52:48.071Z,13.68
2022-12-25T19:55:18.739Z,14.90
2022-12-25T19:57:47.382Z,16.60
2022-12-25T20:00:19.895Z,13.75
2022-12-25T20:02:50.175Z,11.93
2022-12-25T20:05:19.321Z,13.13
2022-12-25T20:07:50.638Z,15.07
2022-12-25T20:10:19.399Z,13.55
2022-12-25T20:12:49.769Z,14.25
2022-12-25T20:15:22.750Z,12.30
2022-12-25T20:17:54.495Z,11.85
2022-12-25T20:20:23.163Z,13.48
2022-12-25T20:22:52.530Z,13.45
2022-12-25T20:25:23.146Z,12.88
2022-12-25T20:27:51.874Z,13.07
2022-12-25T20:30:22.035Z,14.10
2022-12-25T20:32:51.957Z,14.93
2022-12-25T20:35:20.602Z,14.32
2022-12-25T20:37:55.411Z,15.90
2022-12-25T20:40:24.271Z,17.38
2022-12-25T20:42:52.880Z,14.98
2022-12-25T20:45:22.957Z,13.13
2022-12-25T20:47:51.584Z,12.75
2022-12-25T20:50:20.317Z,19.35
2022-12-25T20:52:49.001Z,14.88
2022-12-25T20:55:17.862Z,14.93
2022-12-25T20:57:46.524Z,14.17
2022-12-25T21:00:18.181Z,11.00
2022-12-25T21:02:48.505Z,12.85
2022-12-25T21:05:17.641Z,18.15
2022-12-25T21:07:48.925Z,16.57
2022-12-25T21:10:20.274Z,13.57
2022-12-25T21:12:49.136Z,14.45
2022-12-25T21:15:20.336Z,10.03
2022-12-25T21:17:53.380Z,10.05
2022-12-25T21:20:24.400Z,12.32
2022-12-25T21:22:54.847Z,10.35
2022-12-25T21:27:52.009Z,13.40
2022-12-25T21:30:20.764Z,11.48
2022-12-25T21:33:06.850Z,10.35
2022-12-25T21:35:39.226Z,10.63
2022-12-25T21:38:08.004Z,12.48
2022-12-25T21:40:37.957Z,10.60
2022-12-25T21:43:09.378Z,10.30
2022-12-25T21:45:38.075Z,13.23
2022-12-25T21:48:17.428Z,11.57
2022-12-25T21:51:04.797Z,9.73
2022-12-25T21:53:34.752Z,10.43
2022-12-25T21:56:06.794Z,10.52
2022-12-25T21:58:38.362Z,10.65
2022-12-25T22:01:07.434Z,12.75
2022-12-25T22:03:36.144Z,10.95
2022-12-25T22:06:24.086Z,11.53
2022-12-25T22:08:53.100Z,10.10
2022-12-25T22:11:39.545Z,12.63
2022-12-25T22:14:52.905Z,10.40
2022-12-25T22:17:34.889Z,9.70
2022-12-25T22:20:03.937Z,11.23
2022-12-25T22:22:37.014Z,12.00
2022-12-25T22:25:12.422Z,11.25
2022-12-25T22:27:42.358Z,11.90
2022-12-25T22:30:13.670Z,9.35
2022-12-25T22:32:42.663Z,11.10
2022-12-25T22:35:13.441Z,13.27
2022-12-25T22:37:46.538Z,11.70
2022-12-25T22:40:19.616Z,10.63
2022-12-25T22:42:48.723Z,11.23
2022-12-25T22:45:19.236Z,10.85
2022-12-25T22:47:55.184Z,8.75
2022-12-25T22:50:24.448Z,8.68
2022-12-25T22:52:57.597Z,8.95
2022-12-25T22:55:26.264Z,9.68
2022-12-25T22:57:55.932Z,11.25
2022-12-25T23:00:24.634Z,8.95
2022-12-25T23:02:56.772Z,13.35
2022-12-25T23:05:25.793Z,10.73
2022-12-25T23:08:07.052Z,11.48
2022-12-25T23:10:39.649Z,12.45
2022-12-25T23:13:25.024Z,10.75
2022-12-25T23:15:53.744Z,11.68
2022-12-25T23:18:39.973Z,10.82
2022-12-25T23:21:26.116Z,10.10
2022-12-25T23:24:13.708Z,8.88
2022-12-25T23:26:47.503Z,14.60
2022-12-25T23:29:35.973Z,10.00
2022-12-25T23:32:05.368Z,15.20
2022-12-25T23:34:34.519Z,7.82
2022-12-25T23:37:03.640Z,11.00
2022-12-25T23:39:33.996Z,12.93
2022-12-25T23:42:02.916Z,9.82
2022-12-25T23:44:34.542Z,7.60
2022-12-25T23:47:03.903Z,9.50
2022-12-25T23:49:35.109Z,14.15
2022-12-25T23:52:03.843Z,9.55
2022-12-25T23:54:37.486Z,9.50
2022-12-25T23:57:09.130Z,11.05
2022-12-25T23:59:41.461Z,14.52
